Time;durP1;ratioP1;P1;durP2;ratioP2;P2;SDS_P1;SDS_P2;PMS_P1;PMS_P2;Temp;Humidity;BMP_temperature;BMP_pressure;BME280_temperature;BME280_humidity;BME280_pressure;Samples;Min_cycle;Max_cycle;Signal;HPM_P1;HPM_P2
2023/08/04 00:00:29;;;;;;;5.50;1.00;;;17.10;99.90;;;;;;4966000;28;20425;-88
2023/08/04 00:02:55;;;;;;;4.00;1.10;;;16.70;99.90;;;;;;4966810;28;20421;-88
2023/08/04 00:05:21;;;;;;;5.53;1.15;;;16.80;99.90;;;;;;4982617;28;20410;-87
2023/08/04 00:07:46;;;;;;;5.13;1.03;;;16.80;99.90;;;;;;4966052;28;20470;-89
2023/08/04 00:10:17;;;;;;;4.78;0.90;;;16.90;99.90;;;;;;4966212;28;20425;-88
2023/08/04 00:12:43;;;;;;;6.25;1.10;;;16.70;99.90;;;;;;4949383;29;20441;-89
2023/08/04 00:15:09;;;;;;;6.25;0.70;;;16.90;99.90;;;;;;4965803;28;20422;-89
2023/08/04 00:17:37;;;;;;;5.23;0.80;;;16.60;99.90;;;;;;4965319;28;20782;-88
2023/08/04 00:20:04;;;;;;;5.23;1.00;;;16.80;99.90;;;;;;4966570;28;20422;-87
2023/08/04 00:22:30;;;;;;;4.82;0.70;;;16.50;99.90;;;;;;4933572;29;20422;-87
2023/08/04 00:24:55;;;;;;;4.38;0.70;;;16.50;99.90;;;;;;4965407;28;20916;-88
2023/08/04 00:27:21;;;;;;;5.23;0.80;;;16.50;99.90;;;;;;4965471;28;20434;-88
2023/08/04 00:29:46;;;;;;;4.28;1.00;;;16.80;99.90;;;;;;4965511;28;20422;-90
2023/08/04 00:32:12;;;;;;;5.77;1.10;;;16.40;99.90;;;;;;4949140;29;20959;-87
2023/08/04 00:34:38;;;;;;;4.45;0.93;;;16.40;99.90;;;;;;4981260;28;20449;-87
2023/08/04 00:37:03;;;;;;;6.50;1.30;;;16.40;99.90;;;;;;4982032;28;20515;-88
2023/08/04 00:39:29;;;;;;;4.90;1.27;;;16.40;99.90;;;;;;4965482;28;20414;-89
2023/08/04 00:41:55;;;;;;;5.97;1.20;;;16.40;99.90;;;;;;4965904;28;20410;-88
2023/08/04 00:44:20;;;;;;;5.35;1.20;;;16.30;99.90;;;;;;4981696;28;20410;-88
2023/08/04 00:46:46;;;;;;;6.00;1.30;;;16.30;99.90;;;;;;4965465;28;20442;-88
2023/08/04 00:49:12;;;;;;;5.93;1.70;;;16.30;99.90;;;;;;4965186;28;20432;-87
2023/08/04 00:51:38;;;;;;;7.88;1.67;;;16.50;99.90;;;;;;4964830;28;20536;-89
2023/08/04 00:54:05;;;;;;;9.05;1.55;;;16.30;99.90;;;;;;4965217;28;20402;-89
2023/08/04 00:56:34;;;;;;;9.10;1.38;;;16.30;99.90;;;;;;4948516;29;20418;-88
2023/08/04 00:59:00;;;;;;;6.40;1.17;;;16.40;99.90;;;;;;4981396;28;20418;-89
2023/08/04 01:01:26;;;;;;;6.43;1.33;;;16.30;99.90;;;;;;4948788;29;20425;-86
2023/08/04 01:03:52;;;;;;;4.87;0.83;;;16.20;99.90;;;;;;4965007;28;20868;-88
2023/08/04 01:06:30;;;;;;;6.40;1.10;;;16.30;99.90;;;;;;4932687;29;20947;-89
2023/08/04 01:09:27;;;;;;;7.05;1.23;;;16.20;99.90;;;;;;4932742;29;20783;-88
2023/08/04 01:12:20;;;;;;;5.70;0.95;;;16.30;99.90;;;;;;4981097;28;20604;-88
2023/08/04 01:14:49;;;;;;;5.50;0.90;;;16.20;99.90;;;;;;4932696;29;20441;-87
2023/08/04 01:17:26;;;;;;;5.82;0.80;;;16.30;99.90;;;;;;4932352;29;20429;-88
2023/08/04 01:19:52;;;;;;;4.57;0.60;;;16.60;99.90;;;;;;4948631;29;20422;-88
2023/08/04 01:22:18;;;;;;;5.00;0.70;;;16.20;99.90;;;;;;4932519;29;20446;-88
2023/08/04 01:24:44;;;;;;;3.50;0.45;;;16.20;99.90;;;;;;4948932;29;20449;-88
2023/08/04 01:27:13;;;;;;;2.72;0.38;;;16.20;99.90;;;;;;4964341;28;20948;-88
2023/08/04 01:29:43;;;;;;;2.42;0.25;;;16.40;99.90;;;;;;4932991;29;20418;-89
2023/08/04 01:32:09;;;;;;;1.33;0.20;;;16.20;99.90;;;;;;4944231;29;20441;-88
2023/08/04 01:34:35;;;;;;;2.70;0.20;;;16.40;99.90;;;;;;4964028;28;20427;-88
2023/08/04 01:37:01;;;;;;;3.03;0.30;;;16.50;99.90;;;;;;4963161;28;20410;-89
2023/08/04 01:39:26;;;;;;;3.85;0.30;;;16.50;99.90;;;;;;4932030;29;20773;-88
2023/08/04 01:41:52;;;;;;;2.73;0.30;;;16.10;99.90;;;;;;4980708;28;20430;-87
2023/08/04 01:44:17;;;;;;;2.37;0.30;;;16.00;99.90;;;;;;4964075;28;20442;-88
2023/08/04 01:46:43;;;;;;;2.42;0.30;;;16.10;99.90;;;;;;4963860;28;21042;-88
2023/08/04 01:49:09;;;;;;;1.80;0.30;;;16.00;99.90;;;;;;4948056;29;20920;-87
2023/08/04 01:51:35;;;;;;;3.97;0.45;;;16.10;99.90;;;;;;4947651;29;20437;-89
2023/08/04 01:54:02;;;;;;;3.53;0.60;;;16.00;99.90;;;;;;4980420;28;20421;-87
2023/08/04 01:56:27;;;;;;;3.50;0.90;;;16.00;99.90;;;;;;4947620;29;20410;-87
2023/08/04 01:58:53;;;;;;;2.95;0.70;;;16.30;99.90;;;;;;4964479;28;20425;-87
2023/08/04 02:01:20;;;;;;;4.83;1.27;;;16.30;99.90;;;;;;4947096;29;20641;-87
2023/08/04 02:03:45;;;;;;;3.20;1.10;;;16.20;99.90;;;;;;4963864;28;20451;-88
2023/08/04 02:06:11;;;;;;;3.28;0.80;;;16.10;99.90;;;;;;4979337;28;20493;-88
2023/08/04 02:08:37;;;;;;;3.23;0.80;;;16.20;99.90;;;;;;4947973;29;20410;-89
2023/08/04 02:11:02;;;;;;;5.22;1.50;;;16.30;99.90;;;;;;4963908;28;20845;-88
2023/08/04 02:13:28;;;;;;;3.87;1.10;;;16.30;99.90;;;;;;4979461;28;20409;-87
2023/08/04 02:15:54;;;;;;;4.40;0.98;;;16.80;99.90;;;;;;4963623;28;20512;-89
2023/08/04 02:18:19;;;;;;;4.55;1.15;;;16.10;99.90;;;;;;4963171;28;20607;-87
2023/08/04 02:20:45;;;;;;;6.60;1.70;;;16.30;99.90;;;;;;4963789;28;20428;-88
2023/08/04 02:23:11;;;;;;;6.18;1.40;;;16.10;99.90;;;;;;4963305;28;20426;-88
2023/08/04 02:25:36;;;;;;;4.43;1.03;;;16.20;99.90;;;;;;4932409;29;20432;-88
2023/08/04 02:28:02;;;;;;;4.63;1.23;;;16.20;99.90;;;;;;4979576;28;20429;-89
2023/08/04 02:30:28;;;;;;;5.17;1.57;;;16.20;99.90;;;;;;4963893;28;20445;-89
2023/08/04 02:32:54;;;;;;;5.28;1.58;;;16.10;99.90;;;;;;4964509;28;20476;-88
2023/08/04 02:35:19;;;;;;;6.28;1.80;;;16.50;99.90;;;;;;4963466;28;20410;-88
2023/08/04 02:37:46;;;;;;;8.27;2.47;;;16.20;99.90;;;;;;4947132;29;20409;-88
2023/08/04 02:40:12;;;;;;;7.35;2.40;;;16.00;99.90;;;;;;4962833;28;20422;-89
2023/08/04 02:42:37;;;;;;;5.47;2.40;;;16.00;99.90;;;;;;4946651;28;20555;-87
2023/08/04 02:45:04;;;;;;;9.20;2.67;;;16.00;99.90;;;;;;4911562;29;20511;-86
2023/08/04 02:47:30;;;;;;;4.68;2.60;;;16.00;99.90;;;;;;4913408;29;20479;-88
2023/08/04 02:49:56;;;;;;;4.83;2.30;;;15.90;99.90;;;;;;4931404;29;20559;-87
2023/08/04 02:52:21;;;;;;;7.17;2.80;;;16.20;99.90;;;;;;4915362;29;20435;-87
2023/08/04 02:54:47;;;;;;;7.10;2.33;;;16.00;99.90;;;;;;4931869;29;20966;-88
2023/08/04 02:57:12;;;;;;;6.20;2.50;;;15.80;99.90;;;;;;4915510;29;20626;-87
2023/08/04 02:59:38;;;;;;;6.93;1.92;;;15.90;99.90;;;;;;4916046;29;20415;-88
2023/08/04 03:02:04;;;;;;;4.67;1.70;;;16.20;99.90;;;;;;4915872;29;20415;-86
2023/08/04 03:04:30;;;;;;;5.03;2.00;;;15.90;99.90;;;;;;4915740;29;20415;-88
2023/08/04 03:06:55;;;;;;;4.82;2.03;;;16.00;99.90;;;;;;4915338;29;20455;-88
2023/08/04 03:09:21;;;;;;;6.97;2.30;;;15.80;99.90;;;;;;4915718;29;21134;-88
2023/08/04 03:11:47;;;;;;;6.43;2.40;;;15.80;99.90;;;;;;4915163;29;20455;-87
2023/08/04 03:14:12;;;;;;;6.03;2.70;;;15.70;99.90;;;;;;4915157;29;20911;-89
2023/08/04 03:16:38;;;;;;;7.05;3.17;;;15.80;99.90;;;;;;4915617;29;20439;-88
2023/08/04 03:19:04;;;;;;;6.53;2.83;;;15.70;99.90;;;;;;4914952;29;20756;-88
2023/08/04 03:21:29;;;;;;;5.60;2.70;;;15.70;99.90;;;;;;4931265;29;20423;-87
2023/08/04 03:23:55;;;;;;;7.05;2.58;;;15.70;99.90;;;;;;4915408;29;20506;-86
2023/08/04 03:26:21;;;;;;;7.57;3.10;;;15.70;99.90;;;;;;4915517;29;20407;-88
2023/08/04 03:28:46;;;;;;;7.10;2.53;;;16.00;99.90;;;;;;4915613;29;20479;-87
2023/08/04 03:31:12;;;;;;;5.60;2.40;;;15.70;99.90;;;;;;4930809;29;20443;-87
2023/08/04 03:33:37;;;;;;;6.50;2.70;;;16.00;99.90;;;;;;4931695;29;20424;-88
2023/08/04 03:36:03;;;;;;;6.77;2.27;;;15.70;99.90;;;;;;4915212;29;20427;-89
2023/08/04 03:38:29;;;;;;;6.30;2.40;;;15.70;99.90;;;;;;4915626;29;20454;-87
2023/08/04 03:40:55;;;;;;;8.00;2.83;;;16.00;99.90;;;;;;4915227;29;20507;-89
2023/08/04 03:43:20;;;;;;;7.73;2.90;;;16.50;99.90;;;;;;4916405;29;20462;-87
2023/08/04 03:45:46;;;;;;;7.97;2.78;;;15.60;99.90;;;;;;4915698;29;20422;-88
2023/08/04 03:48:12;;;;;;;6.30;2.77;;;15.80;99.90;;;;;;4915798;29;20415;-89
2023/08/04 03:50:38;;;;;;;6.73;2.57;;;15.60;99.90;;;;;;4915806;29;20440;-89
2023/08/04 03:53:03;;;;;;;8.23;2.78;;;15.90;99.90;;;;;;4931071;29;20421;-88
2023/08/04 03:55:29;;;;;;;7.77;2.67;;;15.90;99.90;;;;;;4915962;29;20424;-89
2023/08/04 03:57:55;;;;;;;7.87;3.27;;;15.90;99.90;;;;;;4930858;29;20464;-87
2023/08/04 04:00:20;;;;;;;7.05;3.40;;;15.90;99.90;;;;;;4914529;29;20779;-88
2023/08/04 04:02:47;;;;;;;8.80;3.37;;;15.60;99.90;;;;;;4915167;29;20551;-88
2023/08/04 04:05:12;;;;;;;7.47;3.28;;;15.90;99.90;;;;;;4930866;29;20444;-88
2023/08/04 04:07:38;;;;;;;7.90;3.70;;;15.60;99.90;;;;;;4915620;29;20464;-87
2023/08/04 04:10:05;;;;;;;6.70;3.20;;;16.00;99.90;;;;;;4915306;29;20414;-89
2023/08/04 04:12:30;;;;;;;6.85;3.00;;;15.60;99.90;;;;;;4914637;29;20435;-88
2023/08/04 04:14:56;;;;;;;5.85;3.20;;;15.70;99.90;;;;;;4930835;29;20418;-88
2023/08/04 04:17:22;;;;;;;8.80;3.60;;;16.00;99.90;;;;;;4915218;29;20411;-88
2023/08/04 04:19:47;;;;;;;6.57;3.25;;;15.80;99.90;;;;;;4914507;29;20422;-87
2023/08/04 04:22:14;;;;;;;7.47;3.72;;;16.10;99.90;;;;;;4915096;29;20423;-88
2023/08/04 04:24:39;;;;;;;7.75;3.85;;;15.80;99.90;;;;;;4914894;29;20431;-88
2023/08/04 04:27:05;;;;;;;6.43;3.23;;;15.80;99.90;;;;;;4914907;29;20439;-89
2023/08/04 04:29:32;;;;;;;6.93;3.60;;;15.80;99.90;;;;;;4914932;29;20415;-87
2023/08/04 04:31:58;;;;;;;9.05;3.78;;;15.90;99.90;;;;;;4914112;29;20470;-89
2023/08/04 04:34:24;;;;;;;7.40;3.42;;;15.80;99.90;;;;;;4914902;29;20419;-87
2023/08/04 04:36:49;;;;;;;8.57;3.80;;;16.00;99.90;;;;;;4914447;29;20950;-88
2023/08/04 04:39:15;;;;;;;8.00;3.60;;;15.90;99.90;;;;;;4914848;29;21150;-87
2023/08/04 04:41:41;;;;;;;10.37;3.80;;;15.90;99.90;;;;;;4914529;29;20407;-89
2023/08/04 04:44:06;;;;;;;8.87;4.00;;;16.00;99.90;;;;;;4914168;29;20452;-88
2023/08/04 04:46:32;;;;;;;6.37;3.50;;;16.00;99.90;;;;;;4914368;29;20835;-89
2023/08/04 04:48:57;;;;;;;7.97;4.47;;;16.00;99.90;;;;;;4929697;29;20488;-89
2023/08/04 04:51:23;;;;;;;6.65;3.85;;;16.30;99.90;;;;;;4914264;29;20785;-88
2023/08/04 04:53:49;;;;;;;8.87;4.30;;;16.10;99.90;;;;;;4914320;29;20911;-88
2023/08/04 04:56:14;;;;;;;7.40;4.07;;;16.40;99.90;;;;;;4913993;29;20832;-88
2023/08/04 04:58:40;;;;;;;9.83;4.70;;;16.30;99.90;;;;;;4914095;29;20430;-88
2023/08/04 05:01:07;;;;;;;9.27;4.15;;;15.80;99.90;;;;;;4929696;29;20978;-88
2023/08/04 05:03:33;;;;;;;9.55;3.78;;;16.20;99.90;;;;;;4913781;29;20840;-88
2023/08/04 05:05:59;;;;;;;7.30;4.10;;;16.20;99.90;;;;;;4914104;29;20412;-88
2023/08/04 05:08:24;;;;;;;8.23;4.00;;;16.20;99.90;;;;;;4929545;29;20487;-88
2023/08/04 05:10:54;;;;;;;8.98;5.15;;;16.30;99.90;;;;;;4913203;29;20961;-89
2023/08/04 05:13:20;;;;;;;9.23;5.10;;;16.40;99.90;;;;;;4914075;29;20430;-88
2023/08/04 05:15:49;;;;;;;12.20;5.38;;;16.40;99.90;;;;;;4927862;29;20819;-88
2023/08/04 05:18:18;;;;;;;9.98;5.13;;;16.40;99.90;;;;;;4964820;28;20433;-88
2023/08/04 05:20:45;;;;;;;7.72;4.70;;;16.50;99.90;;;;;;4932081;29;20505;-88
2023/08/04 05:23:11;;;;;;;9.50;4.90;;;16.50;99.90;;;;;;4931447;29;20447;-88
2023/08/04 05:25:37;;;;;;;8.45;4.80;;;16.80;99.90;;;;;;4932754;29;20802;-87
2023/08/04 05:28:28;;;;;;;10.57;5.10;;;16.60;99.90;;;;;;4959504;28;20416;-88
2023/08/04 05:31:02;;;;;;;8.30;4.43;;;16.50;99.90;;;;;;4914382;29;21052;-88
2023/08/04 05:33:29;;;;;;;12.27;5.78;;;16.50;99.90;;;;;;4928715;29;20439;-87
2023/08/04 05:35:55;;;;;;;7.57;5.15;;;16.50;99.90;;;;;;4928634;29;20415;-89
2023/08/04 05:38:21;;;;;;;10.13;5.57;;;16.60;99.90;;;;;;4917854;29;20406;-88
2023/08/04 05:40:48;;;;;;;8.45;5.57;;;16.60;99.90;;;;;;4931842;29;20751;-89
2023/08/04 05:43:14;;;;;;;10.30;5.68;;;16.70;99.90;;;;;;4932182;29;20414;-87
2023/08/04 05:45:42;;;;;;;8.50;5.38;;;16.70;99.90;;;;;;4931804;29;20754;-88
2023/08/04 05:48:08;;;;;;;7.03;5.05;;;16.80;99.90;;;;;;4932083;29;20421;-88
2023/08/04 05:50:34;;;;;;;8.50;5.07;;;16.70;99.90;;;;;;4947704;29;20421;-88
2023/08/04 05:53:00;;;;;;;8.82;5.18;;;16.90;99.90;;;;;;4932421;29;20944;-88
2023/08/04 05:55:26;;;;;;;7.87;4.33;;;16.90;99.90;;;;;;4931118;29;20476;-88
2023/08/04 05:57:52;;;;;;;8.23;4.57;;;17.00;99.90;;;;;;4947353;29;20426;-88
2023/08/04 06:00:18;;;;;;;7.40;3.95;;;17.20;99.90;;;;;;4948013;29;20438;-88
2023/08/04 06:02:45;;;;;;;7.60;3.75;;;17.10;99.90;;;;;;4947850;29;20841;-89
2023/08/04 06:05:11;;;;;;;7.97;3.83;;;17.10;99.90;;;;;;4932330;29;20924;-88
2023/08/04 06:07:37;;;;;;;7.38;4.22;;;17.50;99.90;;;;;;4931387;29;20768;-88
2023/08/04 06:10:03;;;;;;;5.35;3.53;;;17.20;99.90;;;;;;4947694;29;20419;-88
2023/08/04 06:12:29;;;;;;;8.25;4.22;;;17.30;99.90;;;;;;4931286;29;20438;-88
2023/08/04 06:14:55;;;;;;;7.93;4.28;;;17.50;99.90;;;;;;4931589;29;20440;-87
2023/08/04 06:17:21;;;;;;;6.05;3.08;;;17.30;99.90;;;;;;4931287;29;20960;-88
2023/08/04 06:19:46;;;;;;;6.07;2.40;;;17.30;99.90;;;;;;4931011;29;20464;-88
2023/08/04 06:22:13;;;;;;;8.63;2.53;;;17.20;99.90;;;;;;4931115;29;20503;-88
2023/08/04 06:24:39;;;;;;;4.20;2.22;;;17.50;99.90;;;;;;4926254;29;20421;-87
2023/08/04 06:27:05;;;;;;;5.18;2.17;;;17.30;99.90;;;;;;4918408;29;20427;-88
2023/08/04 06:29:31;;;;;;;6.13;2.47;;;17.50;99.90;;;;;;4934928;29;20496;-89
2023/08/04 06:31:57;;;;;;;6.18;2.03;;;17.60;99.90;;;;;;4929979;29;20894;-86
2023/08/04 06:34:22;;;;;;;5.93;2.33;;;17.50;99.90;;;;;;4930365;29;20496;-88
2023/08/04 06:36:48;;;;;;;5.70;2.10;;;18.00;99.90;;;;;;4946460;29;20449;-88
2023/08/04 06:39:14;;;;;;;8.43;1.90;;;18.10;99.90;;;;;;4931020;29;20893;-88
2023/08/04 06:41:40;;;;;;;6.55;1.45;;;17.70;99.90;;;;;;4930693;29;20416;-88
2023/08/04 06:44:06;;;;;;;3.30;1.40;;;17.70;99.90;;;;;;4931084;29;20449;-88
2023/08/04 06:46:32;;;;;;;5.03;1.83;;;17.70;99.90;;;;;;4931407;29;20897;-89
2023/08/04 06:48:57;;;;;;;3.50;1.60;;;18.00;99.90;;;;;;4947374;29;20964;-89
2023/08/04 06:51:23;;;;;;;4.43;1.57;;;17.60;99.90;;;;;;4930399;29;20440;-88
2023/08/04 06:53:49;;;;;;;5.65;1.40;;;17.60;99.90;;;;;;4931440;29;20422;-88
2023/08/04 06:56:14;;;;;;;6.33;1.57;;;17.60;99.90;;;;;;4947426;29;20432;-89
2023/08/04 06:58:40;;;;;;;4.38;1.42;;;17.60;99.90;;;;;;4930440;29;20481;-88
2023/08/04 07:01:05;;;;;;;5.33;1.20;;;17.60;99.90;;;;;;4946834;29;20422;-89
2023/08/04 07:03:31;;;;;;;4.85;1.42;;;17.60;99.90;;;;;;4945833;29;20782;-88
2023/08/04 07:05:57;;;;;;;5.90;1.43;;;17.90;99.90;;;;;;4946815;29;20525;-88
2023/08/04 07:08:22;;;;;;;6.60;1.47;;;17.90;99.90;;;;;;4946407;29;20465;-88
2023/08/04 07:10:48;;;;;;;5.57;1.63;;;17.90;99.90;;;;;;4930115;29;20438;-88
2023/08/04 07:13:13;;;;;;;5.37;1.20;;;18.00;99.90;;;;;;4930381;29;20469;-88
2023/08/04 07:15:39;;;;;;;4.35;1.23;;;18.00;99.90;;;;;;4930405;29;20450;-89
2023/08/04 07:18:05;;;;;;;5.00;1.30;;;18.30;99.90;;;;;;4930538;29;20778;-88
2023/08/04 07:20:31;;;;;;;5.13;1.20;;;17.90;99.90;;;;;;4930346;29;20410;-88
2023/08/04 07:22:57;;;;;;;7.70;1.80;;;17.80;99.90;;;;;;4930804;29;20781;-89
2023/08/04 07:25:23;;;;;;;5.43;1.00;;;17.80;99.90;;;;;;4945613;29;20406;-87
2023/08/04 07:27:49;;;;;;;4.35;1.30;;;17.70;99.90;;;;;;4930118;29;20438;-89
2023/08/04 07:30:15;;;;;;;6.17;1.73;;;17.50;99.90;;;;;;4929973;29;20425;-88
2023/08/04 07:32:41;;;;;;;6.78;1.83;;;17.60;99.90;;;;;;4946202;28;20802;-89
2023/08/04 07:35:07;;;;;;;7.07;1.88;;;17.40;99.90;;;;;;4933842;29;20411;-88
2023/08/04 07:37:33;;;;;;;5.40;1.70;;;17.50;99.90;;;;;;4933131;29;20848;-88
2023/08/04 07:39:59;;;;;;;5.55;1.88;;;17.60;99.90;;;;;;4933787;29;20413;-88
2023/08/04 07:42:25;;;;;;;6.10;1.80;;;18.10;99.90;;;;;;4949674;29;20430;-88
2023/08/04 07:44:50;;;;;;;6.13;1.25;;;17.80;99.90;;;;;;4949954;29;20426;-88
2023/08/04 07:47:16;;;;;;;5.28;1.40;;;18.00;99.90;;;;;;4933627;29;20445;-87
2023/08/04 07:49:42;;;;;;;6.70;1.60;;;18.10;99.90;;;;;;4933387;29;20418;-88
2023/08/04 07:52:07;;;;;;;7.50;1.50;;;18.30;99.90;;;;;;4933578;29;20441;-89
2023/08/04 07:54:34;;;;;;;8.60;2.40;;;18.40;99.90;;;;;;4933104;29;20417;-88
2023/08/04 07:57:01;;;;;;;6.50;1.63;;;18.40;99.90;;;;;;4933027;29;20417;-88
2023/08/04 07:59:27;;;;;;;10.35;2.58;;;18.40;99.90;;;;;;4933428;29;20444;-88
2023/08/04 08:01:52;;;;;;;5.85;1.42;;;18.40;99.90;;;;;;4933471;29;20433;-88
2023/08/04 08:04:18;;;;;;;8.43;1.77;;;18.40;99.90;;;;;;4933757;29;20826;-88
2023/08/04 08:06:43;;;;;;;4.35;0.80;;;18.50;99.90;;;;;;4933626;29;20452;-89
2023/08/04 08:09:11;;;;;;;8.63;1.30;;;18.50;99.90;;;;;;4949033;29;20418;-87
2023/08/04 08:11:37;;;;;;;5.00;0.90;;;18.60;99.90;;;;;;4948778;29;20438;-88
2023/08/04 08:14:03;;;;;;;6.25;1.08;;;18.70;99.90;;;;;;4933500;29;20434;-90
2023/08/04 08:16:28;;;;;;;4.13;0.80;;;18.80;99.90;;;;;;4932852;29;20449;-89
2023/08/04 08:18:54;;;;;;;6.18;1.00;;;19.00;99.90;;;;;;4933365;29;20476;-89
2023/08/04 08:21:20;;;;;;;6.30;1.10;;;19.00;99.90;;;;;;4933084;29;20739;-88
2023/08/04 08:23:45;;;;;;;6.35;1.00;;;19.10;99.90;;;;;;4949302;29;20406;-90
2023/08/04 08:26:11;;;;;;;5.70;0.90;;;19.20;99.90;;;;;;4932987;29;20785;-89
2023/08/04 08:28:36;;;;;;;3.47;0.70;;;19.40;99.90;;;;;;4932936;29;20422;-89
2023/08/04 08:31:02;;;;;;;4.43;0.60;;;19.70;99.90;;;;;;4932946;29;20446;-89
2023/08/04 08:33:28;;;;;;;4.47;0.63;;;19.60;99.90;;;;;;4933110;29;20402;-90
2023/08/04 08:35:54;;;;;;;5.18;0.63;;;19.60;99.90;;;;;;4933731;29;20936;-89
2023/08/04 08:38:20;;;;;;;4.72;0.60;;;19.60;99.90;;;;;;4932687;29;20940;-88
2023/08/04 08:40:49;;;;;;;6.27;0.60;;;19.70;99.90;;;;;;4933213;29;20410;-89
2023/08/04 08:43:15;;;;;;;4.75;0.60;;;19.80;99.90;;;;;;4932648;29;20409;-87
2023/08/04 08:45:43;;;;;;;5.40;0.60;;;19.90;99.90;;;;;;4948693;28;20441;-89
2023/08/04 08:48:10;;;;;;;5.63;0.63;;;19.80;99.90;;;;;;4932682;29;20992;-88
2023/08/04 08:50:38;;;;;;;4.63;0.70;;;19.80;99.90;;;;;;4932739;29;20449;-89
2023/08/04 08:53:11;;;;;;;2.95;0.40;;;19.70;99.90;;;;;;4933237;29;20422;-89
2023/08/04 08:55:38;;;;;;;3.22;0.45;;;19.70;99.90;;;;;;4932581;29;20465;-87
2023/08/04 08:58:04;;;;;;;4.20;0.60;;;20.00;99.90;;;;;;4933319;29;20461;-88
2023/08/04 09:00:30;;;;;;;3.80;0.50;;;19.50;99.90;;;;;;4932268;29;20493;-88
2023/08/04 09:02:57;;;;;;;4.43;0.50;;;19.40;99.90;;;;;;4933186;29;20421;-89
2023/08/04 09:05:22;;;;;;;5.38;0.93;;;19.60;99.90;;;;;;4932499;29;20417;-89
2023/08/04 09:07:49;;;;;;;3.90;0.60;;;19.50;99.90;;;;;;4931897;29;20410;-89
2023/08/04 09:10:14;;;;;;;6.32;0.80;;;19.50;99.90;;;;;;4948580;29;20493;-88
2023/08/04 09:12:44;;;;;;;5.50;0.80;;;19.70;99.90;;;;;;4931932;29;21073;-89
2023/08/04 09:15:10;;;;;;;4.60;0.97;;;19.80;99.90;;;;;;4932579;29;20418;-88
2023/08/04 09:17:37;;;;;;;5.53;0.80;;;20.20;99.90;;;;;;4931715;29;20445;-89
2023/08/04 09:20:05;;;;;;;6.07;0.82;;;20.80;99.90;;;;;;4932082;29;20449;-88
2023/08/04 09:22:32;;;;;;;6.78;0.93;;;20.80;99.90;;;;;;4931932;29;20936;-89
2023/08/04 09:25:04;;;;;;;7.30;1.03;;;20.80;99.90;;;;;;4931974;29;20417;-90
2023/08/04 09:27:38;;;;;;;5.25;1.20;;;20.60;99.90;;;;;;4932272;29;20438;-89
2023/08/04 09:30:06;;;;;;;3.22;0.63;;;20.40;99.90;;;;;;4932043;29;20846;-90
2023/08/04 09:32:43;;;;;;;4.63;0.63;;;20.00;99.90;;;;;;4947900;29;20434;-89
2023/08/04 09:35:10;;;;;;;4.25;0.88;;;19.80;99.90;;;;;;4915800;29;20413;-89
2023/08/04 09:37:37;;;;;;;5.10;1.02;;;19.90;99.90;;;;;;4931696;29;20905;-89
2023/08/04 09:40:04;;;;;;;5.45;1.33;;;19.70;99.90;;;;;;4931626;29;20453;-88
2023/08/04 09:42:31;;;;;;;4.47;0.90;;;19.70;99.90;;;;;;4931513;29;20508;-89
2023/08/04 09:44:57;;;;;;;5.82;1.20;;;19.80;99.90;;;;;;4931894;29;20457;-88
2023/08/04 09:47:25;;;;;;;7.07;1.27;;;20.20;99.90;;;;;;4931362;29;20463;-88
2023/08/04 09:49:51;;;;;;;5.43;1.20;;;20.00;99.90;;;;;;4931078;29;20713;-89
2023/08/04 09:52:27;;;;;;;5.03;1.10;;;20.80;99.90;;;;;;4931127;29;20438;-89
2023/08/04 09:54:55;;;;;;;6.47;1.10;;;20.70;99.90;;;;;;4931305;29;20442;-90
2023/08/04 09:57:22;;;;;;;5.23;1.13;;;21.00;99.90;;;;;;4930904;29;20414;-89
2023/08/04 09:59:49;;;;;;;4.85;1.30;;;21.30;99.90;;;;;;4946886;29;20406;-89
2023/08/04 10:02:16;;;;;;;5.18;0.80;;;22.00;99.90;;;;;;4947525;29;20809;-89
2023/08/04 10:04:42;;;;;;;5.07;0.85;;;22.20;99.90;;;;;;4931152;29;20414;-89
2023/08/04 10:07:11;;;;;;;5.55;0.75;;;22.30;99.90;;;;;;4947665;29;20497;-89
2023/08/04 10:09:37;;;;;;;2.88;0.47;;;22.20;98.30;;;;;;4931320;29;20425;-89
2023/08/04 10:12:04;;;;;;;4.22;0.50;;;22.20;93.60;;;;;;4931297;29;20879;-90
2023/08/04 10:14:29;;;;;;;2.92;0.50;;;22.10;99.90;;;;;;4931743;29;20532;-90
2023/08/04 10:16:57;;;;;;;2.92;0.40;;;22.20;97.70;;;;;;4947144;29;20457;-90
2023/08/04 10:19:23;;;;;;;3.70;0.60;;;22.30;99.90;;;;;;4947281;29;20409;-88
2023/08/04 10:21:50;;;;;;;3.15;0.60;;;22.40;97.70;;;;;;4947273;29;20924;-89
2023/08/04 10:24:19;;;;;;;5.33;0.50;;;22.10;98.60;;;;;;4931244;29;20892;-91
2023/08/04 10:26:50;;;;;;;2.95;0.50;;;22.10;97.40;;;;;;4946785;29;20453;-88
2023/08/04 10:29:17;;;;;;;3.67;0.50;;;22.60;99.90;;;;;;4947391;29;20430;-90
2023/08/04 10:31:55;;;;;;;4.57;0.40;;;22.80;99.90;;;;;;4931157;29;20806;-90
2023/08/04 10:34:32;;;;;;;2.85;0.40;;;23.50;98.00;;;;;;4931091;29;20460;-89
2023/08/04 10:37:05;;;;;;;4.28;0.40;;;23.40;80.40;;;;;;4931417;29;20914;-89
2023/08/04 10:39:34;;;;;;;4.90;0.40;;;23.50;84.60;;;;;;4915276;29;20917;-89
2023/08/04 10:42:23;;;;;;;4.75;0.60;;;23.20;81.70;;;;;;4931355;29;20585;-88
2023/08/04 10:44:52;;;;;;;5.28;0.60;;;22.90;88.20;;;;;;4930923;29;20421;-88
2023/08/04 10:47:45;;;;;;;3.73;0.50;;;23.10;96.00;;;;;;4914871;29;20549;-89
2023/08/04 10:50:11;;;;;;;2.47;0.45;;;23.00;89.00;;;;;;4947291;29;20425;-89
2023/08/04 10:52:38;;;;;;;3.83;0.50;;;22.60;76.10;;;;;;4946748;29;20441;-88
2023/08/04 10:55:09;;;;;;;3.70;0.60;;;22.20;90.60;;;;;;4930710;29;20417;-89
2023/08/04 10:57:36;;;;;;;4.07;0.50;;;22.50;99.90;;;;;;4930900;29;20413;-88
2023/08/04 11:00:05;;;;;;;3.00;0.60;;;23.30;99.90;;;;;;4930706;29;21026;-90
2023/08/04 11:02:31;;;;;;;2.00;0.20;;;23.90;94.70;;;;;;4931627;29;20410;-91
2023/08/04 11:04:57;;;;;;;2.13;0.20;;;24.20;64.80;;;;;;4930921;29;20569;-89
2023/08/04 11:07:24;;;;;;;2.23;0.37;;;23.60;66.90;;;;;;4931299;28;20421;-90
2023/08/04 11:09:53;;;;;;;2.80;0.40;;;23.30;75.90;;;;;;4950252;29;20432;-89
2023/08/04 11:12:20;;;;;;;2.15;0.40;;;23.00;77.50;;;;;;4934442;29;20498;-90
2023/08/04 11:14:46;;;;;;;2.57;0.30;;;23.10;81.80;;;;;;4934432;29;20421;-88
2023/08/04 11:17:19;;;;;;;2.78;0.50;;;22.60;76.20;;;;;;4934230;29;20440;-88
2023/08/04 11:19:46;;;;;;;4.40;0.70;;;22.40;78.40;;;;;;4950766;29;20414;-89
2023/08/04 11:22:15;;;;;;;3.50;0.60;;;22.50;89.70;;;;;;4934418;29;20425;-89
2023/08/04 11:24:41;;;;;;;4.55;0.95;;;22.50;85.90;;;;;;4934312;29;20417;-90
2023/08/04 11:27:08;;;;;;;4.35;0.70;;;22.20;91.80;;;;;;4949800;29;20477;-89
2023/08/04 11:29:34;;;;;;;5.15;0.98;;;22.00;94.80;;;;;;4934443;29;20421;-91
2023/08/04 11:32:00;;;;;;;4.23;0.70;;;22.10;94.70;;;;;;4933824;29;20434;-89
2023/08/04 11:34:28;;;;;;;4.15;0.95;;;21.80;96.00;;;;;;4933777;29;20429;-89
2023/08/04 11:36:53;;;;;;;3.30;0.70;;;21.90;99.90;;;;;;4934384;29;20500;-89
2023/08/04 11:39:19;;;;;;;6.10;1.30;;;21.90;99.80;;;;;;4933960;29;20948;-89
2023/08/04 11:41:45;;;;;;;3.87;0.67;;;22.20;99.90;;;;;;4934459;29;20421;-89
2023/08/04 11:44:15;;;;;;;4.28;0.70;;;22.70;99.90;;;;;;4950139;29;20793;-89
2023/08/04 11:46:40;;;;;;;3.37;0.60;;;23.30;90.80;;;;;;4950360;29;20406;-91
2023/08/04 11:49:07;;;;;;;4.95;0.85;;;23.50;86.10;;;;;;4950014;29;21067;-90
2023/08/04 11:51:33;;;;;;;3.13;0.60;;;23.60;76.40;;;;;;4934207;29;20801;-90
2023/08/04 11:53:59;;;;;;;4.33;0.50;;;24.00;88.10;;;;;;4950201;29;20417;-89
2023/08/04 11:56:35;;;;;;;2.55;0.60;;;23.90;83.80;;;;;;4933183;29;20460;-91
2023/08/04 11:59:12;;;;;;;3.00;0.40;;;23.50;67.60;;;;;;4950616;29;20410;-91
2023/08/04 12:01:38;;;;;;;2.83;0.35;;;22.90;68.90;;;;;;4933488;29;20440;-89
2023/08/04 12:04:25;;;;;;;4.32;0.50;;;22.40;73.50;;;;;;4934027;29;20477;-90
2023/08/04 12:07:05;;;;;;;5.68;0.85;;;22.00;79.90;;;;;;4933545;29;20530;-90
2023/08/04 12:09:31;;;;;;;6.00;0.97;;;22.10;97.70;;;;;;4933131;29;20429;-88
2023/08/04 12:11:57;;;;;;;3.80;0.80;;;21.90;99.90;;;;;;4950115;29;20448;-89
2023/08/04 12:14:24;;;;;;;5.65;0.80;;;22.00;99.90;;;;;;4933267;29;20406;-90
2023/08/04 12:16:56;;;;;;;5.03;0.82;;;22.40;97.40;;;;;;4933815;29;20464;-90
2023/08/04 12:19:23;;;;;;;5.20;1.00;;;22.40;99.30;;;;;;4932848;29;20422;-89
2023/08/04 12:21:51;;;;;;;3.72;0.70;;;22.40;96.10;;;;;;4933301;29;20936;-89
2023/08/04 12:24:17;;;;;;;4.60;1.10;;;22.50;96.90;;;;;;4949550;29;21178;-89
2023/08/04 12:26:43;;;;;;;6.95;1.25;;;22.30;98.10;;;;;;4948771;29;20448;-89
2023/08/04 12:29:09;;;;;;;5.90;1.13;;;22.50;99.90;;;;;;4934043;29;20469;-92
2023/08/04 12:31:36;;;;;;;7.13;1.30;;;22.20;99.90;;;;;;4933125;29;20434;-89
2023/08/04 12:34:03;;;;;;;6.57;1.23;;;22.10;97.40;;;;;;4933611;29;20525;-89
2023/08/04 12:36:28;;;;;;;5.25;1.20;;;21.90;98.70;;;;;;4949084;29;20493;-89
2023/08/04 12:38:54;;;;;;;6.57;1.50;;;21.80;99.90;;;;;;4933372;29;20996;-90
2023/08/04 12:41:20;;;;;;;6.27;1.20;;;22.00;98.70;;;;;;4949100;29;20430;-89
2023/08/04 12:43:45;;;;;;;5.75;1.35;;;21.30;99.90;;;;;;4933003;29;20429;-90